createdAt,value
2019-01-30T00:03:04.414Z,30.40
2019-01-30T00:06:09.005Z,29.93
2019-01-30T00:09:13.732Z,29.80
2019-01-30T00:12:18.539Z,29.80
2019-01-30T00:15:23.306Z,29.90
2019-01-30T00:18:27.873Z,30.50
2019-01-30T00:21:33.678Z,29.87
2019-01-30T00:24:38.252Z,31.03
2019-01-30T00:27:42.536Z,30.47
2019-01-30T00:30:47.143Z,28.87
2019-01-30T00:33:54.200Z,31.83
2019-01-30T00:36:58.551Z,31.43
2019-01-30T00:40:02.849Z,31.77
2019-01-30T00:43:07.746Z,30.53
2019-01-30T00:46:14.179Z,31.23
2019-01-30T00:49:18.477Z,30.57
2019-01-30T00:52:22.764Z,27.57
2019-01-30T00:55:27.031Z,29.70
2019-01-30T00:58:31.318Z,29.60
2019-01-30T01:01:36.269Z,29.93
2019-01-30T01:04:40.550Z,31.17
2019-01-30T01:07:45.173Z,30.60
2019-01-30T01:10:49.481Z,30.43
2019-01-30T01:13:53.865Z,30.13
2019-01-30T01:16:58.133Z,29.23
2019-01-30T01:20:02.588Z,29.23
2019-01-30T01:23:10.892Z,33.03
2019-01-30T01:26:15.182Z,29.47
2019-01-30T01:29:19.452Z,30.70
2019-01-30T01:32:23.749Z,29.50
2019-01-30T01:35:28.114Z,30.77
2019-01-30T01:38:32.394Z,31.17
2019-01-30T01:41:36.695Z,29.23
2019-01-30T01:44:41.084Z,29.70
2019-01-30T01:47:45.490Z,28.70
2019-01-30T01:50:49.775Z,29.40
2019-01-30T01:53:54.058Z,30.10
2019-01-30T01:56:58.332Z,28.93
2019-01-30T02:00:02.631Z,28.77
2019-01-30T02:03:07.017Z,28.60
2019-01-30T02:06:14.383Z,26.37
2019-01-30T02:09:18.664Z,26.00
2019-01-30T02:12:22.962Z,25.67
2019-01-30T02:15:27.348Z,25.30
2019-01-30T02:18:31.643Z,27.40
2019-01-30T02:21:35.964Z,25.70
2019-01-30T02:24:40.239Z,26.03
2019-01-30T02:27:44.630Z,25.93
2019-01-30T02:30:48.927Z,25.40
2019-01-30T02:33:54.992Z,24.20
2019-01-30T02:36:59.567Z,23.83
2019-01-30T02:40:04.499Z,25.60
2019-01-30T02:43:08.767Z,24.40
2019-01-30T02:46:13.046Z,25.33
2019-01-30T02:49:17.457Z,26.40
2019-01-30T02:52:21.818Z,28.10
2019-01-30T02:55:26.100Z,25.17
2019-01-30T02:58:30.379Z,27.73
2019-01-30T03:01:42.117Z,26.33
2019-01-30T03:04:46.401Z,27.27
2019-01-30T03:07:50.710Z,27.17
2019-01-30T03:10:54.998Z,25.27
2019-01-30T03:13:59.265Z,24.33
2019-01-30T03:17:03.585Z,24.10
2019-01-30T03:20:10.489Z,25.23
2019-01-30T03:23:14.783Z,24.00
2019-01-30T03:26:19.061Z,23.00
2019-01-30T03:29:26.399Z,21.50
2019-01-30T03:32:30.749Z,22.50
2019-01-30T03:35:35.033Z,23.20
2019-01-30T03:38:39.323Z,23.83
2019-01-30T03:41:43.602Z,24.53
2019-01-30T03:44:47.883Z,23.07
2019-01-30T03:47:52.397Z,21.30
2019-01-30T03:50:56.646Z,21.60
2019-01-30T03:54:01.567Z,24.83
2019-01-30T03:57:05.849Z,22.80
2019-01-30T04:00:13.655Z,21.50
2019-01-30T04:03:17.956Z,23.53
2019-01-30T04:06:22.339Z,22.93
2019-01-30T04:09:26.645Z,21.57
2019-01-30T04:12:30.935Z,23.03
2019-01-30T04:15:35.305Z,22.37
2019-01-30T04:18:39.608Z,20.97
2019-01-30T04:21:43.895Z,22.17
2019-01-30T04:24:48.729Z,21.70
2019-01-30T04:27:53.027Z,21.20
2019-01-30T04:30:57.302Z,20.70
2019-01-30T04:34:01.890Z,21.80
2019-01-30T04:37:06.169Z,21.27
2019-01-30T04:40:12.996Z,20.80
2019-01-30T04:43:18.407Z,19.60
2019-01-30T04:46:22.638Z,21.00
2019-01-30T04:49:26.946Z,20.23
2019-01-30T04:52:31.249Z,20.07
2019-01-30T04:55:35.570Z,21.77
2019-01-30T04:58:39.886Z,20.83
2019-01-30T05:01:49.676Z,19.63
2019-01-30T05:04:54.053Z,21.10
2019-01-30T05:07:58.374Z,20.57
2019-01-30T05:11:02.755Z,20.93
2019-01-30T05:14:07.058Z,20.07
2019-01-30T05:17:11.349Z,20.03
2019-01-30T05:20:16.948Z,20.50
2019-01-30T05:23:22.341Z,19.17
2019-01-30T05:26:26.702Z,18.80
2019-01-30T05:29:30.977Z,19.87
2019-01-30T05:32:35.864Z,19.93
2019-01-30T05:35:42.489Z,18.63
2019-01-30T05:38:46.870Z,21.13
2019-01-30T05:41:51.180Z,19.60
2019-01-30T05:44:55.492Z,18.40
2019-01-30T05:47:59.793Z,20.30
2019-01-30T05:51:04.190Z,19.27
2019-01-30T05:54:08.611Z,18.60
2019-01-30T05:57:12.894Z,18.63
2019-01-30T06:00:31.384Z,18.10
2019-01-30T06:03:35.659Z,19.47
2019-01-30T06:06:42.666Z,19.30
2019-01-30T06:09:47.241Z,19.40
2019-01-30T06:12:51.539Z,20.10
2019-01-30T06:15:55.832Z,19.67
2019-01-30T06:19:00.355Z,19.40
2019-01-30T06:22:04.739Z,19.03
2019-01-30T06:25:09.807Z,20.00
2019-01-30T06:28:14.264Z,18.40
2019-01-30T06:31:18.641Z,19.43
2019-01-30T06:34:22.957Z,17.73
2019-01-30T06:37:27.241Z,17.80
2019-01-30T06:40:33.593Z,19.67
2019-01-30T06:43:37.981Z,18.63
2019-01-30T06:46:42.271Z,21.30
2019-01-30T06:49:46.567Z,20.07
2019-01-30T06:52:52.661Z,20.20
2019-01-30T06:55:56.929Z,19.20
2019-01-30T06:59:07.073Z,20.23
2019-01-30T07:02:14.667Z,19.17
2019-01-30T07:05:20.228Z,20.27
2019-01-30T07:08:24.647Z,18.90
2019-01-30T07:11:28.933Z,19.23
2019-01-30T07:14:33.235Z,18.27
2019-01-30T07:17:37.522Z,16.90
2019-01-30T07:20:41.924Z,17.73
2019-01-30T07:23:46.224Z,17.50
2019-01-30T07:26:50.509Z,17.10
2019-01-30T07:29:54.907Z,16.80
2019-01-30T07:32:59.190Z,17.00
2019-01-30T07:36:03.576Z,15.67
2019-01-30T07:39:12.705Z,17.07
2019-01-30T07:42:17.105Z,15.63
2019-01-30T07:45:23.383Z,15.80
2019-01-30T07:48:29.080Z,16.10
2019-01-30T07:51:35.252Z,15.07
2019-01-30T07:54:40.742Z,14.10
2019-01-30T07:57:45.620Z,15.77
2019-01-30T08:00:49.896Z,13.90
2019-01-30T08:03:54.202Z,15.90
2019-01-30T08:06:58.597Z,14.10
2019-01-30T08:10:02.872Z,13.83
2019-01-30T08:13:07.360Z,14.30
2019-01-30T08:16:11.636Z,14.43
2019-01-30T08:19:15.926Z,13.80
2019-01-30T08:22:22.641Z,13.53
2019-01-30T08:25:27.718Z,14.73
2019-01-30T08:28:32.150Z,12.87
2019-01-30T08:31:36.786Z,13.27
2019-01-30T08:34:43.968Z,13.77
2019-01-30T08:37:48.529Z,13.07
2019-01-30T08:40:52.778Z,12.57
2019-01-30T08:43:58.029Z,12.43
2019-01-30T08:47:02.425Z,12.33
2019-01-30T08:50:08.113Z,11.80
2019-01-30T08:53:12.403Z,12.97
2019-01-30T08:56:16.786Z,11.90
2019-01-30T08:59:21.075Z,11.50
2019-01-30T09:02:25.350Z,11.53
2019-01-30T09:05:29.869Z,11.63
2019-01-30T09:08:34.312Z,10.63
2019-01-30T09:11:39.683Z,10.73
2019-01-30T09:14:44.105Z,10.13
2019-01-30T09:17:51.698Z,10.93
2019-01-30T09:20:55.981Z,11.27
2019-01-30T09:24:00.298Z,11.07
2019-01-30T09:27:04.661Z,11.33
2019-01-30T09:30:14.000Z,10.13
2019-01-30T09:33:25.674Z,10.70
2019-01-30T09:36:24.254Z,10.50
2019-01-30T09:39:28.697Z,11.53
2019-01-30T09:42:33.022Z,10.10
2019-01-30T09:45:37.321Z,10.23
2019-01-30T09:48:41.617Z,10.77
2019-01-30T09:51:45.950Z,10.40
2019-01-30T09:54:50.330Z,11.07
2019-01-30T09:57:54.799Z,9.53
2019-01-30T10:00:59.205Z,9.87
2019-01-30T10:04:05.759Z,9.43
2019-01-30T10:07:10.118Z,9.30
2019-01-30T10:10:17.863Z,9.37
2019-01-30T10:13:22.161Z,10.00
2019-01-30T10:16:26.452Z,9.50
2019-01-30T10:19:30.825Z,9.63
2019-01-30T10:22:35.202Z,9.43
2019-01-30T10:25:39.569Z,10.03
2019-01-30T10:28:43.863Z,9.73
2019-01-30T10:31:48.249Z,9.13
2019-01-30T10:34:52.544Z,8.93
2019-01-30T10:37:57.043Z,9.37
2019-01-30T10:41:01.383Z,9.03
2019-01-30T10:44:06.191Z,8.23
2019-01-30T10:47:10.469Z,8.60
2019-01-30T10:50:17.150Z,8.10
2019-01-30T10:53:21.443Z,8.07
2019-01-30T10:56:25.777Z,9.13
2019-01-30T10:59:30.170Z,8.10
2019-01-30T11:02:34.465Z,8.67
2019-01-30T11:05:38.939Z,9.57
2019-01-30T11:08:43.215Z,8.83
2019-01-30T11:11:47.484Z,8.33
2019-01-30T11:14:51.755Z,9.13
2019-01-30T11:17:56.313Z,11.87
2019-01-30T11:21:00.592Z,8.83
2019-01-30T11:24:04.965Z,8.37
2019-01-30T11:27:09.266Z,9.23
2019-01-30T11:30:16.715Z,8.77
2019-01-30T11:33:21.092Z,8.10
2019-01-30T11:36:25.372Z,8.23
2019-01-30T11:39:32.776Z,9.10
2019-01-30T11:42:37.114Z,8.40
2019-01-30T11:45:43.308Z,7.23
2019-01-30T11:48:56.175Z,7.80
2019-01-30T11:51:53.652Z,6.80
2019-01-30T11:54:57.930Z,7.60
2019-01-30T11:58:02.301Z,7.33
2019-01-30T12:01:06.668Z,7.67
2019-01-30T12:04:17.685Z,7.47
2019-01-30T12:07:17.032Z,7.60
2019-01-30T12:10:21.312Z,7.33
2019-01-30T12:13:25.872Z,7.03
2019-01-30T12:16:30.157Z,8.13
2019-01-30T12:19:37.995Z,6.80
2019-01-30T12:22:42.378Z,6.97
2019-01-30T12:25:46.687Z,8.03
2019-01-30T12:28:50.955Z,8.00
2019-01-30T12:31:55.216Z,7.47
2019-01-30T12:34:59.492Z,6.20
2019-01-30T12:38:03.779Z,7.33
2019-01-30T12:41:12.414Z,8.00
2019-01-30T12:44:18.420Z,7.97
2019-01-30T12:47:22.737Z,7.90
2019-01-30T12:50:27.235Z,9.00
2019-01-30T12:53:31.673Z,11.00
2019-01-30T12:56:35.961Z,8.87
2019-01-30T12:59:40.381Z,7.60
2019-01-30T13:02:48.228Z,8.30
2019-01-30T13:05:52.541Z,9.17
2019-01-30T13:08:56.829Z,9.47
2019-01-30T13:12:01.126Z,7.77
2019-01-30T13:15:07.133Z,8.70
2019-01-30T13:18:18.081Z,8.00
2019-01-30T13:21:17.510Z,7.93
2019-01-30T13:24:21.799Z,7.80
2019-01-30T13:27:26.201Z,7.73
2019-01-30T13:30:33.249Z,7.37
2019-01-30T13:33:37.596Z,6.87
2019-01-30T13:36:41.881Z,6.67
2019-01-30T13:39:46.810Z,7.00
2019-01-30T13:42:51.118Z,6.63
2019-01-30T13:46:04.983Z,7.67
2019-01-30T13:49:01.497Z,6.87
2019-01-30T13:52:05.892Z,7.00
2019-01-30T13:55:10.786Z,8.47
2019-01-30T13:58:15.026Z,8.50
2019-01-30T14:01:19.429Z,9.27
2019-01-30T14:04:25.459Z,9.10
2019-01-30T14:07:29.946Z,7.00
2019-01-30T14:10:34.276Z,8.60
2019-01-30T14:13:38.520Z,7.50
2019-01-30T14:16:44.737Z,7.27
2019-01-30T14:19:49.072Z,6.00
2019-01-30T14:22:53.578Z,7.97
2019-01-30T14:25:57.850Z,6.50
2019-01-30T14:29:02.144Z,8.03
2019-01-30T14:32:06.932Z,7.13
2019-01-30T14:35:13.147Z,7.47
2019-01-30T14:38:17.526Z,7.10
2019-01-30T14:41:21.802Z,7.13
2019-01-30T14:44:26.279Z,5.33
2019-01-30T14:47:30.617Z,6.80
2019-01-30T14:50:34.854Z,6.00
2019-01-30T14:53:39.303Z,6.07
2019-01-30T14:56:43.563Z,6.57
2019-01-30T14:59:49.333Z,6.20
2019-01-30T15:02:53.621Z,5.73
2019-01-30T15:05:57.997Z,7.47
2019-01-30T15:09:02.364Z,5.97
2019-01-30T15:12:06.654Z,7.10
2019-01-30T15:15:15.307Z,7.97
2019-01-30T15:18:19.683Z,6.53
2019-01-30T15:21:24.008Z,5.80
2019-01-30T15:24:28.408Z,5.77
2019-01-30T15:27:32.692Z,8.13
2019-01-30T15:30:45.632Z,5.50
2019-01-30T15:33:49.899Z,6.53
2019-01-30T15:36:54.197Z,6.60
2019-01-30T15:39:58.513Z,6.33
2019-01-30T15:43:02.804Z,5.83
2019-01-30T15:46:07.197Z,6.03
2019-01-30T15:49:11.667Z,5.70
2019-01-30T15:52:16.071Z,5.43
2019-01-30T15:55:20.359Z,5.10
2019-01-30T15:58:24.750Z,5.23
2019-01-30T16:01:39.089Z,5.50
2019-01-30T16:04:43.553Z,4.87
2019-01-30T16:07:47.957Z,4.67
2019-01-30T16:10:52.238Z,5.13
2019-01-30T16:13:56.530Z,4.90
2019-01-30T16:17:04.586Z,5.07
2019-01-30T16:20:10.126Z,5.97
2019-01-30T16:23:14.612Z,4.67
2019-01-30T16:26:19.088Z,5.17
2019-01-30T16:29:23.387Z,5.33
2019-01-30T16:32:27.736Z,4.93
2019-01-30T16:35:32.403Z,4.40
2019-01-30T16:38:36.762Z,4.80
2019-01-30T16:41:41.063Z,5.63
2019-01-30T16:44:45.356Z,6.30
2019-01-30T16:47:51.859Z,5.60
2019-01-30T16:50:56.260Z,4.27
2019-01-30T16:54:00.837Z,6.40
2019-01-30T16:57:05.116Z,4.17
2019-01-30T17:00:13.484Z,5.73
2019-01-30T17:03:17.877Z,6.20
2019-01-30T17:06:22.197Z,5.73
2019-01-30T17:09:26.736Z,6.47
2019-01-30T17:12:31.258Z,6.60
2019-01-30T17:15:38.288Z,6.43
2019-01-30T17:18:42.672Z,6.17
2019-01-30T17:21:47.003Z,6.03
2019-01-30T17:24:53.591Z,5.53
2019-01-30T17:27:58.153Z,5.53
2019-01-30T17:31:07.476Z,6.43
2019-01-30T17:34:11.789Z,5.67
2019-01-30T17:37:16.206Z,5.63
2019-01-30T17:40:21.509Z,6.63
2019-01-30T17:43:25.822Z,6.83
2019-01-30T17:46:33.218Z,6.30
2019-01-30T17:49:42.698Z,6.93
2019-01-30T17:52:47.093Z,7.00
2019-01-30T17:55:54.116Z,6.10
2019-01-30T17:58:58.620Z,6.87
2019-01-30T18:02:04.092Z,6.10
2019-01-30T18:05:08.487Z,6.97
2019-01-30T18:08:12.785Z,7.23
2019-01-30T18:11:18.411Z,7.10
2019-01-30T18:14:22.744Z,7.00
2019-01-30T18:17:27.295Z,7.07
2019-01-30T18:20:31.601Z,7.63
2019-01-30T18:23:37.106Z,7.20
2019-01-30T18:26:41.605Z,7.70
2019-01-30T18:29:46.526Z,7.17
2019-01-30T18:32:55.571Z,7.53
2019-01-30T18:36:01.636Z,6.67
2019-01-30T18:39:09.025Z,7.60
2019-01-30T18:42:13.350Z,7.07
2019-01-30T18:45:20.775Z,8.07
2019-01-30T18:48:25.163Z,7.87
2019-01-30T18:51:29.444Z,7.90
2019-01-30T18:54:33.731Z,8.43
2019-01-30T18:57:38.054Z,7.97
2019-01-30T19:00:43.971Z,7.80
2019-01-30T19:03:49.913Z,7.77
2019-01-30T19:06:54.184Z,8.50
2019-01-30T19:09:58.600Z,6.73
2019-01-30T19:13:04.639Z,7.37
2019-01-30T19:16:10.728Z,8.90
2019-01-30T19:19:15.245Z,8.90
2019-01-30T19:22:19.540Z,8.97
2019-01-30T19:25:23.852Z,9.07
2019-01-30T19:28:28.210Z,8.80
2019-01-30T19:31:33.645Z,8.53
2019-01-30T19:34:37.938Z,11.53
2019-01-30T19:37:42.243Z,8.93
2019-01-30T19:40:47.341Z,9.40
2019-01-30T19:43:51.910Z,10.10
2019-01-30T19:46:56.221Z,8.33
2019-01-30T19:50:00.785Z,8.27
2019-01-30T19:53:05.823Z,9.37
2019-01-30T19:56:10.179Z,8.47
2019-01-30T19:59:17.612Z,7.17
2019-01-30T20:02:23.243Z,7.67
2019-01-30T20:05:27.658Z,9.03
2019-01-30T20:08:31.982Z,8.33
2019-01-30T20:11:36.407Z,8.33
2019-01-30T20:14:40.726Z,7.57
2019-01-30T20:17:45.070Z,8.47
2019-01-30T20:20:49.486Z,7.63
2019-01-30T20:23:54.160Z,8.40
2019-01-30T20:26:58.683Z,8.50
2019-01-30T20:30:03.001Z,8.67
2019-01-30T20:33:07.447Z,6.93
2019-01-30T20:36:13.948Z,8.27
2019-01-30T20:39:21.238Z,9.00
2019-01-30T20:42:25.540Z,8.60
2019-01-30T20:45:33.833Z,8.87
2019-01-30T20:48:45.624Z,8.03
2019-01-30T20:51:41.982Z,9.50
2019-01-30T20:54:46.447Z,8.87
2019-01-30T20:57:50.953Z,9.00
2019-01-30T21:01:08.162Z,9.30
2019-01-30T21:04:27.762Z,7.00
2019-01-30T21:07:52.398Z,8.63
2019-01-30T21:11:16.721Z,9.27
2019-01-30T21:14:21.818Z,8.63
2019-01-30T21:17:26.537Z,10.23
2019-01-30T21:20:31.559Z,9.30
2019-01-30T21:23:37.163Z,9.67
2019-01-30T21:26:41.462Z,9.97
2019-01-30T21:29:45.743Z,10.70
2019-01-30T21:32:50.035Z,9.40
2019-01-30T21:35:54.435Z,10.00
2019-01-30T21:38:58.736Z,9.67
2019-01-30T21:42:03.059Z,9.77
2019-01-30T21:45:08.723Z,9.40
2019-01-30T21:48:12.996Z,10.13
2019-01-30T21:51:17.263Z,9.87
2019-01-30T21:54:21.784Z,11.40
2019-01-30T21:57:26.564Z,9.87
2019-01-30T22:00:31.360Z,10.23
2019-01-30T22:03:35.738Z,9.63
2019-01-30T22:06:40.353Z,10.03
2019-01-30T22:09:44.974Z,10.60
2019-01-30T22:12:49.903Z,9.87
2019-01-30T22:15:55.285Z,10.00
2019-01-30T22:18:59.664Z,10.00
2019-01-30T22:22:03.960Z,11.37
2019-01-30T22:25:20.012Z,10.00
2019-01-30T22:28:16.422Z,9.83
2019-01-30T22:31:20.973Z,9.20
2019-01-30T22:34:25.456Z,11.07
2019-01-30T22:37:30.074Z,11.70
2019-01-30T22:40:34.368Z,11.17
2019-01-30T22:43:38.666Z,11.90
2019-01-30T22:46:44.451Z,12.70
2019-01-30T22:49:49.056Z,11.93
2019-01-30T22:52:53.746Z,12.80
2019-01-30T22:55:58.474Z,13.03
2019-01-30T22:59:02.959Z,13.03
2019-01-30T23:02:11.755Z,13.57
2019-01-30T23:05:55.773Z,13.53
2019-01-30T23:09:44.279Z,12.47
2019-01-30T23:13:24.564Z,13.43
2019-01-30T23:17:04.118Z,10.87
2019-01-30T23:20:37.730Z,12.70
2019-01-30T23:24:38.405Z,14.53
2019-01-30T23:27:49.148Z,14.00
2019-01-30T23:31:24.646Z,13.13
2019-01-30T23:35:00.364Z,12.80
2019-01-30T23:38:34.406Z,13.50
2019-01-30T23:42:06.097Z,13.07
2019-01-30T23:45:45.025Z,15.03
2019-01-30T23:49:18.354Z,14.13
2019-01-30T23:52:48.202Z,13.33
2019-01-30T23:56:48.519Z,13.90
